McCaulley, Texas
Current Conditions -  °F | °C
As of 1:15 AM on Sunday 23 Nov 2014 (Local Time) from KSWW Reporting Station
Clear Clear  
Wind Chill: 52°   Ceiling: Unl
Heat Index: 52°   Visibility: 10mi
Dew Point: 52°   Wind: 13mph
Humidity: 100%   Direction: 200°SSW
Pressure: 29.7"   Gusts: NA
Location:  32.78°N, 100.21°W
Report Text: KSWW 230715Z AUTO 20011KT 10SM CLR 11/11 A2970 RMK AO2 T01110111
Loading
Personal Weather Stations






























Interactive Weather Map New forecast layout! Learn more

10-Day Weather Forecast

Advertisements
Track Severe Weather on mobile